sensor_id;sensor_type;location;lat;lon;timestamp;pressure;altitude;pressure_sealevel;temperature;humidity
67818;BME280;54614;47.576;7.524;2023-04-28T00:01:21;98287.66;;;26.35;35.15
67818;BME280;54614;47.576;7.524;2023-04-28T00:03:47;98287.91;;;26.33;35.35
67818;BME280;54614;47.576;7.524;2023-04-28T00:06:13;98293.28;;;26.33;35.39
67818;BME280;54614;47.576;7.524;2023-04-28T00:08:40;98296.19;;;26.31;35.50
67818;BME280;54614;47.576;7.524;2023-04-28T00:11:12;98296.19;;;26.31;35.22
67818;BME280;54614;47.576;7.524;2023-04-28T00:13:38;98295.97;;;26.33;35.40
67818;BME280;54614;47.576;7.524;2023-04-28T00:16:04;98300.16;;;26.29;35.25
67818;BME280;54614;47.576;7.524;2023-04-28T00:18:30;98292.31;;;26.27;35.42
67818;BME280;54614;47.576;7.524;2023-04-28T00:20:58;98300.97;;;26.29;35.39
67818;BME280;54614;47.576;7.524;2023-04-28T00:23:24;98287.50;;;26.29;35.45
67818;BME280;54614;47.576;7.524;2023-04-28T00:25:54;98288.56;;;26.28;35.23
67818;BME280;54614;47.576;7.524;2023-04-28T00:28:21;98284.22;;;26.27;35.21
67818;BME280;54614;47.576;7.524;2023-04-28T00:30:47;98278.81;;;26.27;35.42
67818;BME280;54614;47.576;7.524;2023-04-28T00:33:13;98296.63;;;26.28;35.18
67818;BME280;54614;47.576;7.524;2023-04-28T00:35:39;98294.63;;;26.24;35.44
67818;BME280;54614;47.576;7.524;2023-04-28T00:38:06;98294.41;;;26.25;35.37
67818;BME280;54614;47.576;7.524;2023-04-28T00:42:59;98281.63;;;26.21;35.52
67818;BME280;54614;47.576;7.524;2023-04-28T00:45:25;98290.28;;;26.23;35.41
67818;BME280;54614;47.576;7.524;2023-04-28T00:47:51;98298.38;;;26.23;35.46
67818;BME280;54614;47.576;7.524;2023-04-28T00:50:17;98297.56;;;26.22;35.32
67818;BME280;54614;47.576;7.524;2023-04-28T00:52:43;98304.81;;;26.22;35.58
67818;BME280;54614;47.576;7.524;2023-04-28T00:55:09;98313.13;;;26.20;35.60
67818;BME280;54614;47.576;7.524;2023-04-28T00:57:35;98294.03;;;26.22;35.58
67818;BME280;54614;47.576;7.524;2023-04-28T01:00:02;98311.03;;;26.22;35.61
67818;BME280;54614;47.576;7.524;2023-04-28T01:02:29;98295.91;;;26.21;35.53
67818;BME280;54614;47.576;7.524;2023-04-28T01:04:57;98293.00;;;26.23;35.54
67818;BME280;54614;47.576;7.524;2023-04-28T01:07:23;98290.53;;;26.21;35.41
67818;BME280;54614;47.576;7.524;2023-04-28T01:09:49;98289.69;;;26.21;35.74
67818;BME280;54614;47.576;7.524;2023-04-28T01:12:15;98294.03;;;26.22;35.50
67818;BME280;54614;47.576;7.524;2023-04-28T01:14:41;98279.38;;;26.18;35.74
67818;BME280;54614;47.576;7.524;2023-04-28T01:17:08;98263.19;;;26.18;35.53
67818;BME280;54614;47.576;7.524;2023-04-28T01:19:33;98255.34;;;26.16;35.69
67818;BME280;54614;47.576;7.524;2023-04-28T01:22:00;98264.25;;;26.17;35.51
67818;BME280;54614;47.576;7.524;2023-04-28T01:24:26;98254.88;;;26.19;35.66
67818;BME280;54614;47.576;7.524;2023-04-28T01:26:52;98258.84;;;26.17;35.45
67818;BME280;54614;47.576;7.524;2023-04-28T01:29:17;98266.72;;;26.18;35.52
67818;BME280;54614;47.576;7.524;2023-04-28T01:31:43;98266.59;;;26.13;35.92
67818;BME280;54614;47.576;7.524;2023-04-28T01:34:09;98270.47;;;26.17;35.78
67818;BME280;54614;47.576;7.524;2023-04-28T01:36:35;98269.66;;;26.17;35.62
67818;BME280;54614;47.576;7.524;2023-04-28T01:39:01;98280.44;;;26.17;35.47
67818;BME280;54614;47.576;7.524;2023-04-28T01:41:26;98272.56;;;26.15;35.85
67818;BME280;54614;47.576;7.524;2023-04-28T01:43:52;98270.94;;;26.14;35.65
67818;BME280;54614;47.576;7.524;2023-04-28T01:46:18;98273.63;;;26.14;35.91
67818;BME280;54614;47.576;7.524;2023-04-28T01:48:44;98278.56;;;26.17;35.69
67818;BME280;54614;47.576;7.524;2023-04-28T01:51:09;98273.38;;;26.16;35.69
67818;BME280;54614;47.576;7.524;2023-04-28T01:53:35;98270.69;;;26.16;35.81
67818;BME280;54614;47.576;7.524;2023-04-28T01:56:01;98274.66;;;26.13;35.77
67818;BME280;54614;47.576;7.524;2023-04-28T01:58:27;98269.50;;;26.12;35.71
67818;BME280;54614;47.576;7.524;2023-04-28T02:00:53;98280.28;;;26.12;36.03
67818;BME280;54614;47.576;7.524;2023-04-28T02:03:19;98272.66;;;26.09;35.79
67818;BME280;54614;47.576;7.524;2023-04-28T02:05:44;98273.47;;;26.09;35.91
67818;BME280;54614;47.576;7.524;2023-04-28T02:08:10;98268.91;;;26.10;35.91
67818;BME280;54614;47.576;7.524;2023-04-28T02:10:36;98264.56;;;26.09;35.89
67818;BME280;54614;47.576;7.524;2023-04-28T02:13:02;98262.94;;;26.08;36.03
67818;BME280;54614;47.576;7.524;2023-04-28T02:15:27;98258.38;;;26.08;35.90
67818;BME280;54614;47.576;7.524;2023-04-28T02:17:54;98260.00;;;26.09;35.92
67818;BME280;54614;47.576;7.524;2023-04-28T02:20:19;98251.63;;;25.99;36.11
67818;BME280;54614;47.576;7.524;2023-04-28T02:22:45;98245.81;;;26.02;36.03
67818;BME280;54614;47.576;7.524;2023-04-28T02:25:11;98240.41;;;26.02;36.32
67818;BME280;54614;47.576;7.524;2023-04-28T02:27:37;98245.34;;;26.05;36.10
67818;BME280;54614;47.576;7.524;2023-04-28T02:30:05;98237.63;;;26.09;36.12
67818;BME280;54614;47.576;7.524;2023-04-28T02:32:31;98242.41;;;26.07;36.13
67818;BME280;54614;47.576;7.524;2023-04-28T02:34:57;98247.81;;;26.07;36.27
67818;BME280;54614;47.576;7.524;2023-04-28T02:37:23;98257.78;;;26.06;36.39
67818;BME280;54614;47.576;7.524;2023-04-28T02:39:49;98249.44;;;26.08;36.20
67818;BME280;54614;47.576;7.524;2023-04-28T02:42:15;98250.75;;;26.05;36.10
67818;BME280;54614;47.576;7.524;2023-04-28T02:44:41;98249.69;;;26.06;36.04
67818;BME280;54614;47.576;7.524;2023-04-28T02:47:07;98264.56;;;26.09;36.17
67818;BME280;54614;47.576;7.524;2023-04-28T02:49:32;98254.03;;;26.07;36.04
67818;BME280;54614;47.576;7.524;2023-04-28T02:51:58;98255.53;;;26.03;36.02
67818;BME280;54614;47.576;7.524;2023-04-28T02:54:24;98249.91;;;26.05;36.01
67818;BME280;54614;47.576;7.524;2023-04-28T02:56:56;98250.75;;;26.05;36.08
67818;BME280;54614;47.576;7.524;2023-04-28T02:59:24;98244.75;;;26.03;36.35
67818;BME280;54614;47.576;7.524;2023-04-28T03:01:50;98249.09;;;26.04;36.07
67818;BME280;54614;47.576;7.524;2023-04-28T03:04:18;98251.78;;;26.04;36.11
67818;BME280;54614;47.576;7.524;2023-04-28T03:06:44;98254.47;;;26.04;36.21
67818;BME280;54614;47.576;7.524;2023-04-28T03:09:10;98266.09;;;26.05;36.05
67818;BME280;54614;47.576;7.524;2023-04-28T03:11:36;98269.81;;;26.04;36.08
67818;BME280;54614;47.576;7.524;2023-04-28T03:14:01;98268.56;;;26.06;36.18
67818;BME280;54614;47.576;7.524;2023-04-28T03:16:27;98276.88;;;26.05;35.99
67818;BME280;54614;47.576;7.524;2023-04-28T03:18:53;98275.00;;;26.05;36.24
67818;BME280;54614;47.576;7.524;2023-04-28T03:21:19;98280.63;;;26.04;36.16
67818;BME280;54614;47.576;7.524;2023-04-28T03:23:45;98281.44;;;26.04;35.92
67818;BME280;54614;47.576;7.524;2023-04-28T03:26:10;98282.47;;;26.03;36.15
67818;BME280;54614;47.576;7.524;2023-04-28T03:28:36;98283.53;;;26.02;36.44
67818;BME280;54614;47.576;7.524;2023-04-28T03:31:02;98285.59;;;26.00;36.19
67818;BME280;54614;47.576;7.524;2023-04-28T03:33:28;98301.63;;;25.95;36.47
67818;BME280;54614;47.576;7.524;2023-04-28T03:35:54;98304.94;;;25.97;36.17
67818;BME280;54614;47.576;7.524;2023-04-28T03:38:20;98298.25;;;25.99;36.15
67818;BME280;54614;47.576;7.524;2023-04-28T03:40:47;98307.78;;;26.02;36.37
67818;BME280;54614;47.576;7.524;2023-04-28T03:43:13;98310.50;;;26.02;36.34
67818;BME280;54614;47.576;7.524;2023-04-28T03:45:39;98310.50;;;26.02;36.08
67818;BME280;54614;47.576;7.524;2023-04-28T03:48:06;98309.44;;;26.03;36.25
67818;BME280;54614;47.576;7.524;2023-04-28T03:50:32;98299.31;;;25.98;36.44
67818;BME280;54614;47.576;7.524;2023-04-28T03:52:58;98295.88;;;25.91;36.27
67818;BME280;54614;47.576;7.524;2023-04-28T03:55:24;98310.31;;;25.97;36.41
67818;BME280;54614;47.576;7.524;2023-04-28T03:57:51;98318.81;;;26.00;36.40
67818;BME280;54614;47.576;7.524;2023-04-28T04:00:17;98327.72;;;26.01;36.41
67818;BME280;54614;47.576;7.524;2023-04-28T04:02:43;98322.91;;;26.03;36.60
67818;BME280;54614;47.576;7.524;2023-04-28T04:05:09;98321.69;;;25.99;36.46
67818;BME280;54614;47.576;7.524;2023-04-28T04:07:34;98323.34;;;26.00;36.51
67818;BME280;54614;47.576;7.524;2023-04-28T04:10:00;98322.75;;;25.98;36.49
67818;BME280;54614;47.576;7.524;2023-04-28T04:12:26;98315.06;;;26.01;36.09
67818;BME280;54614;47.576;7.524;2023-04-28T04:14:52;98325.84;;;26.01;36.64
67818;BME280;54614;47.576;7.524;2023-04-28T04:17:17;98333.69;;;26.03;36.17
67818;BME280;54614;47.576;7.524;2023-04-28T04:19:46;98329.13;;;26.04;36.48
67818;BME280;54614;47.576;7.524;2023-04-28T04:22:11;98334.28;;;26.05;36.36
67818;BME280;54614;47.576;7.524;2023-04-28T04:24:37;98324.19;;;26.00;36.35
67818;BME280;54614;47.576;7.524;2023-04-28T04:27:03;98321.50;;;26.00;36.67
67818;BME280;54614;47.576;7.524;2023-04-28T04:29:29;98317.75;;;26.01;36.31
67818;BME280;54614;47.576;7.524;2023-04-28T04:31:54;98323.13;;;26.01;36.64
67818;BME280;54614;47.576;7.524;2023-04-28T04:34:20;98323.34;;;26.00;36.32
67818;BME280;54614;47.576;7.524;2023-04-28T04:36:46;98324.19;;;26.00;36.63
67818;BME280;54614;47.576;7.524;2023-04-28T04:39:12;98322.50;;;25.99;36.52
67818;BME280;54614;47.576;7.524;2023-04-28T04:41:38;98317.94;;;26.00;36.38
67818;BME280;54614;47.576;7.524;2023-04-28T04:44:04;98312.34;;;26.01;36.27
67818;BME280;54614;47.576;7.524;2023-04-28T04:46:30;98324.19;;;26.00;36.35
67818;BME280;54614;47.576;7.524;2023-04-28T04:48:56;98317.13;;;25.99;36.76
67818;BME280;54614;47.576;7.524;2023-04-28T04:51:22;98310.09;;;25.98;36.61
67818;BME280;54614;47.576;7.524;2023-04-28T04:53:48;98311.97;;;25.98;36.66
67818;BME280;54614;47.576;7.524;2023-04-28T04:56:14;98316.75;;;25.96;36.86
67818;BME280;54614;47.576;7.524;2023-04-28T04:58:42;98308.91;;;25.94;36.70
67818;BME280;54614;47.576;7.524;2023-04-28T05:01:09;98310.53;;;25.95;36.61
67818;BME280;54614;47.576;7.524;2023-04-28T05:03:34;98308.06;;;25.94;36.89
67818;BME280;54614;47.576;7.524;2023-04-28T05:06:00;98307.84;;;25.95;36.65
67818;BME280;54614;47.576;7.524;2023-04-28T05:08:28;98313.00;;;25.97;36.72
67818;BME280;54614;47.576;7.524;2023-04-28T05:10:53;98325.66;;;25.96;36.85
67818;BME280;54614;47.576;7.524;2023-04-28T05:13:19;98319.91;;;25.93;36.75
67818;BME280;54614;47.576;7.524;2023-04-28T05:15:45;98310.16;;;25.92;36.86
67818;BME280;54614;47.576;7.524;2023-04-28T05:18:11;98314.97;;;25.90;36.75
67818;BME280;54614;47.576;7.524;2023-04-28T05:20:38;98311.81;;;25.93;36.58
67818;BME280;54614;47.576;7.524;2023-04-28T05:23:05;98320.13;;;25.91;36.96
67818;BME280;54614;47.576;7.524;2023-04-28T05:25:31;98325.16;;;25.88;36.87
67818;BME280;54614;47.576;7.524;2023-04-28T05:27:57;98330.91;;;25.91;36.62
67818;BME280;54614;47.576;7.524;2023-04-28T05:30:23;98328.44;;;25.90;36.79
67818;BME280;54614;47.576;7.524;2023-04-28T05:32:49;98325.28;;;25.93;36.71
67818;BME280;54614;47.576;7.524;2023-04-28T05:35:14;98320.72;;;25.93;36.75
67818;BME280;54614;47.576;7.524;2023-04-28T05:37:40;98328.88;;;25.87;37.10
67818;BME280;54614;47.576;7.524;2023-04-28T05:40:08;98322.22;;;25.89;36.77
67818;BME280;54614;47.576;7.524;2023-04-28T05:42:34;98328.44;;;25.90;36.79
67818;BME280;54614;47.576;7.524;2023-04-28T05:45:00;98340.63;;;25.92;36.61
67818;BME280;54614;47.576;7.524;2023-04-28T05:47:27;98323.88;;;25.90;36.78
67818;BME280;54614;47.576;7.524;2023-04-28T05:49:54;98316.84;;;25.89;36.78
67818;BME280;54614;47.576;7.524;2023-04-28T05:52:20;98309.56;;;25.90;36.68
67818;BME280;54614;47.576;7.524;2023-04-28T05:54:45;98310.16;;;25.92;37.07
67818;BME280;54614;47.576;7.524;2023-04-28T05:57:11;98296.09;;;25.90;36.70
67818;BME280;54614;47.576;7.524;2023-04-28T05:59:37;98300.66;;;25.89;36.97
67818;BME280;54614;47.576;7.524;2023-04-28T06:02:03;98314.97;;;25.90;36.64
67818;BME280;54614;47.576;7.524;2023-04-28T06:04:29;98304.41;;;25.88;36.97
67818;BME280;54614;47.576;7.524;2023-04-28T06:06:55;98306.66;;;25.91;36.91
67818;BME280;54614;47.576;7.524;2023-04-28T06:09:20;98313.09;;;25.90;36.82
67818;BME280;54614;47.576;7.524;2023-04-28T06:11:46;98312.72;;;25.87;37.14
67818;BME280;54614;47.576;7.524;2023-04-28T06:14:12;98309.44;;;25.85;36.98
67818;BME280;54614;47.576;7.524;2023-04-28T06:16:38;98307.03;;;25.77;37.41
67818;BME280;54614;47.576;7.524;2023-04-28T06:19:04;98307.41;;;25.80;37.64
67818;BME280;54614;47.576;7.524;2023-04-28T06:21:29;98322.47;;;25.69;37.95
67818;BME280;54614;47.576;7.524;2023-04-28T06:23:56;98327.69;;;25.83;37.55
67818;BME280;54614;47.576;7.524;2023-04-28T06:26:23;98331.13;;;25.90;37.40
67818;BME280;54614;47.576;7.524;2023-04-28T06:28:49;98332.91;;;25.96;37.12
67818;BME280;54614;47.576;7.524;2023-04-28T06:31:15;98339.13;;;25.96;37.22
67818;BME280;54614;47.576;7.524;2023-04-28T06:33:41;98328.59;;;26.13;36.98
67818;BME280;54614;47.576;7.524;2023-04-28T06:36:07;98322.91;;;26.03;37.02
67818;BME280;54614;47.576;7.524;2023-04-28T06:38:33;98335.34;;;26.04;37.24
67818;BME280;54614;47.576;7.524;2023-04-28T06:40:59;98334.06;;;26.07;37.16
67818;BME280;54614;47.576;7.524;2023-04-28T06:43:24;98337.81;;;26.06;37.07
67818;BME280;54614;47.576;7.524;2023-04-28T06:45:51;98333.97;;;26.13;37.10
67818;BME280;54614;47.576;7.524;2023-04-28T06:48:17;98330.13;;;26.21;37.02
67818;BME280;54614;47.576;7.524;2023-04-28T06:50:42;98336.00;;;26.18;37.13
67818;BME280;54614;47.576;7.524;2023-04-28T06:53:08;98340.91;;;26.21;36.93
67818;BME280;54614;47.576;7.524;2023-04-28T06:55:34;98347.09;;;26.10;37.31
67818;BME280;54614;47.576;7.524;2023-04-28T06:58:00;98350.06;;;26.20;37.04
67818;BME280;54614;47.576;7.524;2023-04-28T07:00:26;98338.69;;;26.18;36.96
67818;BME280;54614;47.576;7.524;2023-04-28T07:02:51;98345.81;;;26.12;37.09
67818;BME280;54614;47.576;7.524;2023-04-28T07:05:17;98350.97;;;26.14;37.28
67818;BME280;54614;47.576;7.524;2023-04-28T07:07:44;98351.19;;;26.12;37.05
67818;BME280;54614;47.576;7.524;2023-04-28T07:10:10;98337.13;;;26.10;37.38
67818;BME280;54614;47.576;7.524;2023-04-28T07:12:36;98340.28;;;26.07;37.57
67818;BME280;54614;47.576;7.524;2023-04-28T07:15:02;98334.28;;;26.05;37.46
67818;BME280;54614;47.576;7.524;2023-04-28T07:17:27;98343.78;;;26.08;37.37
67818;BME280;54614;47.576;7.524;2023-04-28T07:19:53;98346.50;;;26.08;37.35
67818;BME280;54614;47.576;7.524;2023-04-28T07:22:19;98347.00;;;25.98;37.56
67818;BME280;54614;47.576;7.524;2023-04-28T07:24:45;98354.25;;;25.97;38.18
67818;BME280;54614;47.576;7.524;2023-04-28T07:27:10;98355.84;;;26.05;37.76
67818;BME280;54614;47.576;7.524;2023-04-28T07:29:37;98359.75;;;26.09;37.66
67818;BME280;54614;47.576;7.524;2023-04-28T07:32:03;98350.28;;;26.00;37.71
67818;BME280;54614;47.576;7.524;2023-04-28T07:34:35;98349.28;;;26.01;38.03
67818;BME280;54614;47.576;7.524;2023-04-28T07:37:02;98354.44;;;26.02;37.96
67818;BME280;54614;47.576;7.524;2023-04-28T07:39:30;98343.66;;;26.02;37.84
67818;BME280;54614;47.576;7.524;2023-04-28T07:41:56;98356.44;;;25.89;39.95
67818;BME280;54614;47.576;7.524;2023-04-28T07:44:23;98348.63;;;25.99;39.15
67818;BME280;54614;47.576;7.524;2023-04-28T07:46:49;98337.94;;;25.92;39.17
67818;BME280;54614;47.576;7.524;2023-04-28T07:49:15;98345.88;;;25.69;40.00
67818;BME280;54614;47.576;7.524;2023-04-28T07:51:41;98353.38;;;26.04;38.90
67818;BME280;54614;47.576;7.524;2023-04-28T07:54:07;98350.16;;;26.13;38.58
67818;BME280;54614;47.576;7.524;2023-04-28T07:56:33;98350.69;;;26.04;40.46
67818;BME280;54614;47.576;7.524;2023-04-28T07:58:59;98349.78;;;25.91;40.77
67818;BME280;54614;47.576;7.524;2023-04-28T08:01:25;98354.78;;;25.88;41.35
67818;BME280;54614;47.576;7.524;2023-04-28T08:03:50;98348.78;;;26.22;40.31
67818;BME280;54614;47.576;7.524;2023-04-28T08:06:16;98353.66;;;26.32;39.29
67818;BME280;54614;47.576;7.524;2023-04-28T08:08:43;98344.88;;;26.37;39.59
67818;BME280;54614;47.576;7.524;2023-04-28T08:11:09;98352.75;;;26.20;40.00
67818;BME280;54614;47.576;7.524;2023-04-28T08:13:35;98356.00;;;26.10;40.07
67818;BME280;54614;47.576;7.524;2023-04-28T08:16:01;98356.31;;;26.02;40.15
67818;BME280;54614;47.576;7.524;2023-04-28T08:18:27;98362.78;;;25.94;40.25
67818;BME280;54614;47.576;7.524;2023-04-28T08:20:53;98368.28;;;26.06;39.90
67818;BME280;54614;47.576;7.524;2023-04-28T08:23:19;98364.81;;;26.36;38.83
67818;BME280;54614;47.576;7.524;2023-04-28T08:25:45;98355.38;;;26.56;38.22
67818;BME280;54614;47.576;7.524;2023-04-28T08:28:12;98358.56;;;26.65;37.72
67818;BME280;54614;47.576;7.524;2023-04-28T08:30:38;98360.34;;;26.71;37.85
67818;BME280;54614;47.576;7.524;2023-04-28T08:33:04;98356.72;;;26.77;37.85
67818;BME280;54614;47.576;7.524;2023-04-28T08:35:30;98357.91;;;26.81;37.62
67818;BME280;54614;47.576;7.524;2023-04-28T08:37:56;98359.66;;;26.76;37.47
67818;BME280;54614;47.576;7.524;2023-04-28T08:40:22;98362.38;;;26.87;37.52
67818;BME280;54614;47.576;7.524;2023-04-28T08:42:49;98372.47;;;26.92;37.20
67818;BME280;54614;47.576;7.524;2023-04-28T08:45:16;98364.97;;;26.94;37.25
67818;BME280;54614;47.576;7.524;2023-04-28T08:47:42;98363.56;;;26.91;37.29
67818;BME280;54614;47.576;7.524;2023-04-28T08:50:13;98370.75;;;26.98;37.65
67818;BME280;54614;47.576;7.524;2023-04-28T08:52:41;98367.09;;;26.92;37.76
67818;BME280;54614;47.576;7.524;2023-04-28T08:55:10;98368.84;;;26.86;37.71
67818;BME280;54614;47.576;7.524;2023-04-28T08:57:49;98373.00;;;27.01;37.43
67818;BME280;54614;47.576;7.524;2023-04-28T09:00:19;98382.16;;;27.00;37.47
67818;BME280;54614;47.576;7.524;2023-04-28T09:02:45;98377.94;;;27.04;37.29
67818;BME280;54614;47.576;7.524;2023-04-28T09:05:12;98385.56;;;27.07;37.31
67818;BME280;54614;47.576;7.524;2023-04-28T09:07:40;98389.44;;;27.11;37.16
67818;BME280;54614;47.576;7.524;2023-04-28T09:10:23;98387.44;;;27.06;37.22
67818;BME280;54614;47.576;7.524;2023-04-28T09:12:53;98385.22;;;27.03;37.43
67818;BME280;54614;47.576;7.524;2023-04-28T09:15:32;98386.63;;;27.06;37.32
67818;BME280;54614;47.576;7.524;2023-04-28T09:18:00;98385.69;;;27.12;37.26
67818;BME280;54614;47.576;7.524;2023-04-28T09:20:28;98390.25;;;27.11;37.40
67818;BME280;54614;47.576;7.524;2023-04-28T09:23:11;98386.25;;;27.02;37.69
67818;BME280;54614;47.576;7.524;2023-04-28T09:25:37;98391.56;;;27.09;37.61
67818;BME280;54614;47.576;7.524;2023-04-28T09:28:20;98389.09;;;27.07;37.62
67818;BME280;54614;47.576;7.524;2023-04-28T09:30:46;98397.31;;;27.12;37.47
67818;BME280;54614;47.576;7.524;2023-04-28T09:33:13;98392.13;;;27.11;37.49
67818;BME280;54614;47.576;7.524;2023-04-28T09:35:41;98391.91;;;27.12;37.47
67818;BME280;54614;47.576;7.524;2023-04-28T09:38:10;98393.19;;;27.10;37.61
67818;BME280;54614;47.576;7.524;2023-04-28T09:40:59;98387.09;;;27.14;37.40
67818;BME280;54614;47.576;7.524;2023-04-28T09:43:34;98381.94;;;27.13;37.68
67818;BME280;54614;47.576;7.524;2023-04-28T09:46:03;98385.81;;;27.17;37.36
67818;BME280;54614;47.576;7.524;2023-04-28T09:48:34;98387.69;;;27.16;37.30
67818;BME280;54614;47.576;7.524;2023-04-28T09:51:03;98395.91;;;27.21;37.46
67818;BME280;54614;47.576;7.524;2023-04-28T09:53:31;98394.50;;;27.19;37.70
67818;BME280;54614;47.576;7.524;2023-04-28T09:56:01;98395.41;;;27.01;43.43
67818;BME280;54614;47.576;7.524;2023-04-28T09:58:29;98387.84;;;26.91;45.11
67818;BME280;54614;47.576;7.524;2023-04-28T10:00:59;98395.19;;;27.03;46.09
67818;BME280;54614;47.576;7.524;2023-04-28T10:03:30;98392.72;;;27.01;51.51
67818;BME280;54614;47.576;7.524;2023-04-28T10:05:58;98384.63;;;27.13;51.87
67818;BME280;54614;47.576;7.524;2023-04-28T10:08:25;98387.22;;;27.19;51.83
67818;BME280;54614;47.576;7.524;2023-04-28T10:10:52;98383.34;;;27.27;50.67
67818;BME280;54614;47.576;7.524;2023-04-28T10:13:20;98392.16;;;27.46;50.13
67818;BME280;54614;47.576;7.524;2023-04-28T10:15:47;98379.84;;;27.50;48.26
67818;BME280;54614;47.576;7.524;2023-04-28T10:18:14;98378.78;;;27.74;49.08
67818;BME280;54614;47.576;7.524;2023-04-28T10:20:47;98384.19;;;27.74;46.70
67818;BME280;54614;47.576;7.524;2023-04-28T10:26:16;98377.13;;;27.85;42.39
67818;BME280;54614;47.576;7.524;2023-04-28T10:28:48;98373.47;;;27.91;40.77
67818;BME280;54614;47.576;7.524;2023-04-28T10:31:19;98365.59;;;27.89;39.79
67818;BME280;54614;47.576;7.524;2023-04-28T10:33:47;98367.94;;;27.86;39.92
67818;BME280;54614;47.576;7.524;2023-04-28T10:36:47;98379.69;;;27.91;39.46
67818;BME280;54614;47.576;7.524;2023-04-28T10:39:20;98386.63;;;27.87;39.15
67818;BME280;54614;47.576;7.524;2023-04-28T10:41:46;98377.34;;;27.83;39.22
67818;BME280;54614;47.576;7.524;2023-04-28T10:47:00;98371.13;;;27.83;38.61
67818;BME280;54614;47.576;7.524;2023-04-28T10:55:31;98365.72;;;27.83;46.61
67818;BME280;54614;47.576;7.524;2023-04-28T11:00:45;98367.94;;;27.98;45.18
67818;BME280;54614;47.576;7.524;2023-04-28T11:03:47;98366.28;;;27.97;45.79
67818;BME280;54614;47.576;7.524;2023-04-28T11:06:24;98363.91;;;28.00;45.12
67818;BME280;54614;47.576;7.524;2023-04-28T11:08:56;98353.25;;;27.93;46.95
67818;BME280;54614;47.576;7.524;2023-04-28T11:19:27;98360.41;;;28.00;42.26
67818;BME280;54614;47.576;7.524;2023-04-28T11:21:58;98355.13;;;27.93;41.71
67818;BME280;54614;47.576;7.524;2023-04-28T11:24:27;98361.47;;;27.87;41.50
67818;BME280;54614;47.576;7.524;2023-04-28T11:26:54;98362.44;;;27.81;41.19
67818;BME280;54614;47.576;7.524;2023-04-28T11:29:36;98356.22;;;27.80;40.50
67818;BME280;54614;47.576;7.524;2023-04-28T11:32:07;98346.31;;;27.86;39.89
67818;BME280;54614;47.576;7.524;2023-04-28T11:34:35;98344.94;;;27.83;40.04
67818;BME280;54614;47.576;7.524;2023-04-28T11:37:02;98353.50;;;27.80;39.83
67818;BME280;54614;47.576;7.524;2023-04-28T11:39:33;98341.41;;;27.83;39.61
67818;BME280;54614;47.576;7.524;2023-04-28T11:42:09;98333.06;;;27.84;39.66
67818;BME280;54614;47.576;7.524;2023-04-28T11:44:35;98340.81;;;27.81;39.29
67818;BME280;54614;47.576;7.524;2023-04-28T11:47:03;98342.34;;;27.77;39.23
67818;BME280;54614;47.576;7.524;2023-04-28T11:49:31;98331.88;;;27.80;39.22
67818;BME280;54614;47.576;7.524;2023-04-28T11:52:07;98337.44;;;27.74;39.29
67818;BME280;54614;47.576;7.524;2023-04-28T11:54:34;98328.97;;;27.70;39.41
67818;BME280;54614;47.576;7.524;2023-04-28T11:57:01;98325.09;;;27.66;39.46
67818;BME280;54614;47.576;7.524;2023-04-28T11:59:34;98318.28;;;27.64;39.97
67818;BME280;54614;47.576;7.524;2023-04-28T12:02:05;98321.47;;;27.60;40.34
67818;BME280;54614;47.576;7.524;2023-04-28T12:04:36;98315.03;;;27.15;41.25
67818;BME280;54614;47.576;7.524;2023-04-28T12:07:12;98317.13;;;27.13;40.88
67818;BME280;54614;47.576;7.524;2023-04-28T12:09:43;98315.50;;;27.12;41.27
67818;BME280;54614;47.576;7.524;2023-04-28T12:12:11;98320.31;;;26.98;41.33
67818;BME280;54614;47.576;7.524;2023-04-28T12:15:13;98318.28;;;27.40;40.20
67818;BME280;54614;47.576;7.524;2023-04-28T12:17:41;98316.91;;;27.03;41.18
67818;BME280;54614;47.576;7.524;2023-04-28T12:20:34;98318.41;;;26.99;41.38
67818;BME280;54614;47.576;7.524;2023-04-28T12:23:01;98316.28;;;26.89;41.52
67818;BME280;54614;47.576;7.524;2023-04-28T12:25:27;98318.03;;;26.83;41.51
67818;BME280;54614;47.576;7.524;2023-04-28T12:28:05;98315.84;;;27.15;40.73
67818;BME280;54614;47.576;7.524;2023-04-28T12:30:34;98303.84;;;27.46;39.57
67818;BME280;54614;47.576;7.524;2023-04-28T12:33:03;98309.25;;;27.46;39.19
67818;BME280;54614;47.576;7.524;2023-04-28T12:35:29;98314.19;;;27.49;39.13
67818;BME280;54614;47.576;7.524;2023-04-28T12:37:56;98299.47;;;27.57;38.73
67818;BME280;54614;47.576;7.524;2023-04-28T12:40:23;98307.13;;;27.60;38.67
67818;BME280;54614;47.576;7.524;2023-04-28T12:42:49;98292.19;;;27.57;38.32
67818;BME280;54614;47.576;7.524;2023-04-28T12:45:15;98279.75;;;27.56;38.43
67818;BME280;54614;47.576;7.524;2023-04-28T12:47:42;98283.28;;;27.57;38.55
67818;BME280;54614;47.576;7.524;2023-04-28T12:50:08;98291.03;;;27.53;38.59
67818;BME280;54614;47.576;7.524;2023-04-28T12:52:34;98292.91;;;27.53;38.63
67818;BME280;54614;47.576;7.524;2023-04-28T12:55:02;98295.50;;;27.48;38.56
67818;BME280;54614;47.576;7.524;2023-04-28T12:57:28;98284.22;;;27.51;38.41
67818;BME280;54614;47.576;7.524;2023-04-28T12:59:54;98295.50;;;27.48;38.50
67818;BME280;54614;47.576;7.524;2023-04-28T13:02:22;98290.56;;;27.45;38.49
67818;BME280;54614;47.576;7.524;2023-04-28T13:04:47;98287.88;;;27.45;38.38
67818;BME280;54614;47.576;7.524;2023-04-28T13:07:17;98280.00;;;27.43;38.46
67818;BME280;54614;47.576;7.524;2023-04-28T13:09:44;98272.97;;;27.42;38.53
67818;BME280;54614;47.576;7.524;2023-04-28T13:12:11;98272.72;;;27.44;38.49
67818;BME280;54614;47.576;7.524;2023-04-28T13:14:37;98270.97;;;27.38;38.46
67818;BME280;54614;47.576;7.524;2023-04-28T13:17:02;98283.19;;;27.40;38.48
67818;BME280;54614;47.576;7.524;2023-04-28T13:19:29;98265.56;;;27.38;38.52
67818;BME280;54614;47.576;7.524;2023-04-28T13:21:56;98274.03;;;27.41;38.23
67818;BME280;54614;47.576;7.524;2023-04-28T13:24:22;98265.34;;;27.39;38.51
67818;BME280;54614;47.576;7.524;2023-04-28T13:26:48;98272.63;;;27.39;38.39